sensor_id;sensor_type;location;lat;lon;timestamp;temperature;humidity
50907;DHT22;36882;27.680;85.304;2022-08-01T00:00:16;24.10;99.90
50907;DHT22;36882;27.680;85.304;2022-08-01T00:02:50;24.10;99.90
50907;DHT22;36882;27.680;85.304;2022-08-01T00:05:20;24.10;99.90
50907;DHT22;36882;27.680;85.304;2022-08-01T00:07:51;24.10;99.90
50907;DHT22;36882;27.680;85.304;2022-08-01T00:10:21;24.10;99.90
50907;DHT22;36882;27.680;85.304;2022-08-01T00:12:52;24.10;99.90
50907;DHT22;36882;27.680;85.304;2022-08-01T00:15:22;24.10;99.90
50907;DHT22;36882;27.680;85.304;2022-08-01T00:17:52;24.10;99.90
50907;DHT22;36882;27.680;85.304;2022-08-01T00:20:24;24.10;99.90
50907;DHT22;36882;27.680;85.304;2022-08-01T00:22:54;24.10;99.90
50907;DHT22;36882;27.680;85.304;2022-08-01T00:25:25;24.10;99.90
50907;DHT22;36882;27.680;85.304;2022-08-01T00:28:01;24.10;99.90
50907;DHT22;36882;27.680;85.304;2022-08-01T00:30:32;24.20;99.90
50907;DHT22;36882;27.680;85.304;2022-08-01T00:33:03;24.20;99.90
50907;DHT22;36882;27.680;85.304;2022-08-01T00:35:33;24.20;99.90
50907;DHT22;36882;27.680;85.304;2022-08-01T00:38:03;24.20;99.90
50907;DHT22;36882;27.680;85.304;2022-08-01T00:40:34;24.20;99.90
50907;DHT22;36882;27.680;85.304;2022-08-01T00:43:04;24.30;99.90
50907;DHT22;36882;27.680;85.304;2022-08-01T00:45:35;24.40;99.90
50907;DHT22;36882;27.680;85.304;2022-08-01T00:48:05;24.40;99.90
50907;DHT22;36882;27.680;85.304;2022-08-01T00:50:36;24.30;99.90
50907;DHT22;36882;27.680;85.304;2022-08-01T00:53:06;24.30;99.90
50907;DHT22;36882;27.680;85.304;2022-08-01T00:55:46;24.30;99.90
50907;DHT22;36882;27.680;85.304;2022-08-01T00:58:18;24.30;99.90
50907;DHT22;36882;27.680;85.304;2022-08-01T01:00:50;24.30;99.90
50907;DHT22;36882;27.680;85.304;2022-08-01T01:03:22;24.30;99.90
50907;DHT22;36882;27.680;85.304;2022-08-01T01:06:26;24.40;99.90
50907;DHT22;36882;27.680;85.304;2022-08-01T01:09:17;24.40;99.90
50907;DHT22;36882;27.680;85.304;2022-08-01T01:12:01;24.40;99.90
50907;DHT22;36882;27.680;85.304;2022-08-01T01:14:39;24.40;99.90
50907;DHT22;36882;27.680;85.304;2022-08-01T01:17:17;24.40;99.90
50907;DHT22;36882;27.680;85.304;2022-08-01T01:20:13;24.40;99.90
50907;DHT22;36882;27.680;85.304;2022-08-01T01:23:12;24.30;99.90
50907;DHT22;36882;27.680;85.304;2022-08-01T01:28:55;24.40;99.90
50907;DHT22;36882;27.680;85.304;2022-08-01T01:31:27;24.50;99.90
50907;DHT22;36882;27.680;85.304;2022-08-01T01:34:00;24.50;99.90
50907;DHT22;36882;27.680;85.304;2022-08-01T01:36:32;24.60;99.90
50907;DHT22;36882;27.680;85.304;2022-08-01T01:39:03;24.60;99.90
50907;DHT22;36882;27.680;85.304;2022-08-01T01:41:36;24.60;99.90
50907;DHT22;36882;27.680;85.304;2022-08-01T01:44:09;24.70;99.90
50907;DHT22;36882;27.680;85.304;2022-08-01T01:46:41;24.90;99.90
50907;DHT22;36882;27.680;85.304;2022-08-01T01:49:12;24.90;99.90
50907;DHT22;36882;27.680;85.304;2022-08-01T01:51:43;25.00;99.90
50907;DHT22;36882;27.680;85.304;2022-08-01T01:54:33;25.00;99.90
50907;DHT22;36882;27.680;85.304;2022-08-01T01:57:06;25.10;99.90
50907;DHT22;36882;27.680;85.304;2022-08-01T01:59:41;25.20;99.90
50907;DHT22;36882;27.680;85.304;2022-08-01T02:02:15;25.20;99.90
50907;DHT22;36882;27.680;85.304;2022-08-01T02:04:47;25.30;99.90
50907;DHT22;36882;27.680;85.304;2022-08-01T02:07:22;25.40;99.90
50907;DHT22;36882;27.680;85.304;2022-08-01T02:09:54;25.40;99.90
50907;DHT22;36882;27.680;85.304;2022-08-01T02:12:26;25.50;99.90
50907;DHT22;36882;27.680;85.304;2022-08-01T02:14:58;25.50;99.90
50907;DHT22;36882;27.680;85.304;2022-08-01T02:17:30;25.60;99.90
50907;DHT22;36882;27.680;85.304;2022-08-01T02:20:01;25.70;99.90
50907;DHT22;36882;27.680;85.304;2022-08-01T02:22:36;25.90;99.90
50907;DHT22;36882;27.680;85.304;2022-08-01T02:25:23;26.00;99.90
50907;DHT22;36882;27.680;85.304;2022-08-01T02:28:07;26.20;99.90
50907;DHT22;36882;27.680;85.304;2022-08-01T02:30:44;26.30;99.90
50907;DHT22;36882;27.680;85.304;2022-08-01T02:33:18;26.50;99.90
50907;DHT22;36882;27.680;85.304;2022-08-01T02:35:56;26.50;99.90
50907;DHT22;36882;27.680;85.304;2022-08-01T02:38:48;26.60;99.90
50907;DHT22;36882;27.680;85.304;2022-08-01T02:41:22;26.70;99.90
50907;DHT22;36882;27.680;85.304;2022-08-01T02:43:58;26.80;99.90
50907;DHT22;36882;27.680;85.304;2022-08-01T02:46:36;26.90;99.90
50907;DHT22;36882;27.680;85.304;2022-08-01T02:49:09;26.90;99.90
50907;DHT22;36882;27.680;85.304;2022-08-01T02:51:41;26.90;99.90
50907;DHT22;36882;27.680;85.304;2022-08-01T02:54:15;26.80;99.90
50907;DHT22;36882;27.680;85.304;2022-08-01T02:56:48;26.80;99.90
50907;DHT22;36882;27.680;85.304;2022-08-01T02:59:23;26.80;99.90
50907;DHT22;36882;27.680;85.304;2022-08-01T03:01:57;26.70;99.90
50907;DHT22;36882;27.680;85.304;2022-08-01T03:04:31;26.60;99.90
50907;DHT22;36882;27.680;85.304;2022-08-01T03:07:05;26.60;99.90
